Stevenson, Connecticut
Current Conditions -  °F | °C
As of 8:52 PM on Wednesday 26 Nov 2014 (Local Time) from KOXC Reporting Station
Light Rain Light Rain  
Wind Chill: -11°   Ceiling: 800
Heat Index:   Visibility: 2mi
Dew Point: -3°   Wind: 167mph
Humidity: 75%   Direction: 360°N
Pressure: 29.75"   Gusts: NA
Location:  41.38°N, 73.18°W
Report Text: KOXC 270152Z 360145KT 2SM -RA BR BKN008 OVC014 01/M03 A2975 RMK LAST
Loading
Personal Weather Stations






























Interactive Weather Map New forecast layout! Learn more

10-Day Weather Forecast

Advertisements
Track Severe Weather on mobile